createdAt,value
2022-12-16T00:02:38.615Z,98641.66
2022-12-16T00:07:42.252Z,98632.34
2022-12-16T00:12:47.058Z,98621.56
2022-12-16T00:17:50.183Z,98623.84
2022-12-16T00:22:55.444Z,98616.59
2022-12-16T00:28:00.619Z,98614.16
2022-12-16T00:33:04.225Z,98628.09
2022-12-16T00:38:07.725Z,98622.16
2022-12-16T00:43:12.969Z,98615.38
2022-12-16T00:48:17.332Z,98595.25
2022-12-16T00:53:21.314Z,98620.41
2022-12-16T00:58:26.090Z,98624.50
2022-12-16T01:03:29.201Z,98622.47
2022-12-16T01:08:32.539Z,98624.13
2022-12-16T01:13:37.482Z,98618.03
2022-12-16T01:18:41.000Z,98627.97
2022-12-16T01:23:44.391Z,98620.63
2022-12-16T01:28:50.682Z,98624.06
2022-12-16T01:33:54.323Z,98633.31
2022-12-16T01:38:58.338Z,98623.84
2022-12-16T01:44:17.402Z,98642.91
2022-12-16T01:49:26.108Z,98631.50
2022-12-16T01:59:57.169Z,98644.44
2022-12-16T02:05:17.915Z,98647.38
2022-12-16T02:15:53.499Z,98646.81
2022-12-16T02:21:40.274Z,98642.59
2022-12-16T02:32:33.300Z,98649.56
2022-12-16T02:37:44.195Z,98643.56
2022-12-16T02:42:54.059Z,98641.22
2022-12-16T02:48:00.178Z,98649.56
2022-12-16T02:53:05.820Z,98647.63
2022-12-16T02:58:17.833Z,98648.25
2022-12-16T03:03:30.998Z,98654.28
2022-12-16T03:08:39.310Z,98658.53
2022-12-16T03:13:46.568Z,98664.44
2022-12-16T03:24:15.779Z,98655.28
2022-12-16T03:29:25.954Z,98672.78
2022-12-16T03:40:02.783Z,98685.03
2022-12-16T03:45:09.582Z,98685.81
2022-12-16T03:50:14.466Z,98700.50
2022-12-16T03:55:17.885Z,98713.19
2022-12-16T04:00:21.643Z,98731.00
2022-12-16T04:05:26.574Z,98737.06
2022-12-16T04:10:43.880Z,98752.34
2022-12-16T04:16:13.151Z,98756.56
2022-12-16T04:21:35.337Z,98763.97
2022-12-16T04:26:52.573Z,98746.88
2022-12-16T04:31:56.315Z,98781.13
2022-12-16T04:37:20.855Z,98787.91
2022-12-16T04:48:35.403Z,98811.81
2022-12-16T04:53:57.563Z,98827.44
2022-12-16T05:04:58.761Z,98833.84
2022-12-16T05:10:21.191Z,98847.91
2022-12-16T05:15:42.082Z,98869.28
2022-12-16T05:21:02.639Z,98876.75
2022-12-16T05:26:27.116Z,98894.97
2022-12-16T05:37:25.799Z,98913.44
2022-12-16T05:42:47.828Z,98934.66
2022-12-16T05:48:08.469Z,98946.63
2022-12-16T05:53:29.524Z,98950.63
2022-12-16T05:58:51.510Z,98964.94
2022-12-16T06:04:17.226Z,98982.06
2022-12-16T06:09:38.741Z,98998.88
2022-12-16T06:15:00.914Z,99015.72
2022-12-16T06:20:21.588Z,99020.78
2022-12-16T06:25:42.508Z,99041.19
2022-12-16T06:31:04.819Z,99049.63
2022-12-16T06:36:26.304Z,99070.91
2022-12-16T06:41:47.468Z,99075.56
2022-12-16T06:47:09.838Z,99097.81
2022-12-16T06:52:30.634Z,99112.88
2022-12-16T06:57:50.694Z,99130.16
2022-12-16T07:03:12.849Z,99137.47
2022-12-16T07:08:32.874Z,99141.38
2022-12-16T07:13:53.509Z,99168.69
2022-12-16T07:19:14.999Z,99182.47
2022-12-16T07:24:35.794Z,99190.69
2022-12-16T07:29:56.534Z,99199.72
2022-12-16T07:35:18.823Z,99211.78
2022-12-16T07:40:39.739Z,99236.00
2022-12-16T07:46:03.214Z,99247.34
2022-12-16T07:51:25.487Z,99256.25
2022-12-16T07:56:46.328Z,99260.13
2022-12-16T08:02:07.147Z,99280.56
2022-12-16T08:07:29.634Z,99283.13
2022-12-16T08:12:50.212Z,99287.91
2022-12-16T08:18:11.776Z,99289.19
2022-12-16T08:23:33.449Z,99306.97
2022-12-16T08:28:54.633Z,99310.06
2022-12-16T08:34:15.254Z,99315.00
2022-12-16T08:39:37.838Z,99328.88
2022-12-16T08:44:58.451Z,99335.28
2022-12-16T08:50:19.246Z,99355.59
2022-12-16T08:55:41.487Z,99358.59
2022-12-16T09:01:07.045Z,99362.00
2022-12-16T09:06:28.822Z,99363.53
2022-12-16T09:11:50.854Z,99383.94
2022-12-16T09:17:12.383Z,99396.66
2022-12-16T09:22:33.165Z,99394.53
2022-12-16T09:27:55.205Z,99406.88
2022-12-16T09:33:16.886Z,99406.88
2022-12-16T09:38:37.713Z,99411.56
2022-12-16T09:44:19.758Z,99421.00
2022-12-16T09:49:54.665Z,99430.88
2022-12-16T09:55:16.229Z,99445.94
2022-12-16T10:00:41.554Z,99440.06
2022-12-16T10:06:12.721Z,99464.69
2022-12-16T10:11:40.357Z,99471.31
2022-12-16T10:17:10.962Z,99492.66
2022-12-16T10:22:39.691Z,99479.38
2022-12-16T10:28:04.277Z,99498.50
2022-12-16T10:33:32.637Z,99511.78
2022-12-16T10:38:59.331Z,99529.06
2022-12-16T10:44:22.775Z,99524.09
2022-12-16T10:49:47.454Z,99529.25
2022-12-16T10:55:20.894Z,99562.06
2022-12-16T11:01:00.775Z,99571.53
2022-12-16T11:06:24.050Z,99582.59
2022-12-16T11:11:47.843Z,99588.63
2022-12-16T11:17:33.376Z,99604.00
2022-12-16T11:22:55.742Z,99612.97
2022-12-16T11:28:21.967Z,99612.69
2022-12-16T11:33:46.746Z,99625.44
2022-12-16T11:39:10.939Z,99637.63
2022-12-16T11:44:37.427Z,99643.44
2022-12-16T11:49:59.634Z,99658.47
2022-12-16T11:56:03.219Z,99665.41
2022-12-16T12:01:21.384Z,99680.94
2022-12-16T12:06:51.180Z,99690.72
2022-12-16T12:12:19.242Z,99698.44
2022-12-16T12:17:47.770Z,99700.19
2022-12-16T12:23:08.356Z,99706.50
2022-12-16T12:28:40.044Z,99718.19
2022-12-16T12:34:14.943Z,99719.88
2022-12-16T12:39:41.047Z,99730.28
2022-12-16T12:45:13.612Z,99730.56
2022-12-16T12:50:40.478Z,99738.28
2022-12-16T12:56:08.786Z,99742.63
2022-12-16T13:01:32.267Z,99747.97
2022-12-16T13:06:50.929Z,99753.25
2022-12-16T13:12:40.846Z,99754.66
2022-12-16T13:18:38.655Z,99757.75
2022-12-16T13:24:00.791Z,99762.78
2022-12-16T13:29:36.544Z,99773.88
2022-12-16T13:35:13.420Z,99781.22
2022-12-16T13:40:38.065Z,99788.03
2022-12-16T13:46:01.147Z,99793.28
2022-12-16T13:51:23.467Z,99794.56
2022-12-16T13:56:52.091Z,99805.47
2022-12-16T14:02:15.883Z,99815.97
2022-12-16T14:07:40.829Z,99832.00
2022-12-16T14:13:14.712Z,99835.97
2022-12-16T14:18:46.692Z,99846.09
2022-12-16T14:24:16.159Z,99836.56
2022-12-16T14:29:41.385Z,99852.34
2022-12-16T14:35:02.258Z,99868.66
2022-12-16T14:40:39.256Z,99875.34
2022-12-16T14:46:07.917Z,99871.16
2022-12-16T14:51:50.815Z,99887.91
2022-12-16T14:57:16.414Z,99890.38
2022-12-16T15:02:44.788Z,99895.91
2022-12-16T15:08:05.750Z,99898.34
2022-12-16T15:13:35.416Z,99900.47
2022-12-16T15:18:59.687Z,99914.25
2022-12-16T15:24:31.827Z,99913.53
2022-12-16T15:29:55.581Z,99926.09
2022-12-16T15:35:16.439Z,99936.19
2022-12-16T15:40:44.134Z,99937.53
2022-12-16T15:46:08.979Z,99930.84
2022-12-16T15:51:40.704Z,99931.78
2022-12-16T15:57:03.714Z,99940.81
2022-12-16T16:02:32.745Z,99943.34
2022-12-16T16:07:54.602Z,99942.69
2022-12-16T16:13:17.678Z,99935.41
2022-12-16T16:18:40.019Z,99915.66
2022-12-16T16:24:00.687Z,99928.72
2022-12-16T16:29:22.115Z,99922.56
2022-12-16T16:34:44.010Z,99933.88
2022-12-16T16:40:16.069Z,99926.63
2022-12-16T16:45:36.693Z,99921.72
2022-12-16T16:50:58.887Z,99907.78
2022-12-16T16:56:25.446Z,99936.19
2022-12-16T17:01:46.293Z,99932.53
2022-12-16T17:07:08.580Z,99934.63
2022-12-16T17:12:39.399Z,99939.75
2022-12-16T17:18:00.123Z,99943.84
2022-12-16T17:23:22.417Z,99946.19
2022-12-16T17:28:43.000Z,99954.56
2022-12-16T17:34:03.682Z,99944.22
2022-12-16T17:39:26.181Z,99937.38
2022-12-16T17:44:46.819Z,99938.75
2022-12-16T17:50:07.501Z,99949.06
2022-12-16T17:55:30.108Z,99949.06
2022-12-16T18:00:50.963Z,99952.16
2022-12-16T18:06:15.346Z,99959.22
2022-12-16T18:11:38.931Z,99969.53
2022-12-16T18:17:00.076Z,99975.31
2022-12-16T18:22:21.338Z,99990.75
2022-12-16T18:27:43.708Z,99992.69
2022-12-16T18:33:04.400Z,99986.25
2022-12-16T18:38:25.042Z,99983.03
2022-12-16T18:43:47.476Z,99986.34
2022-12-16T18:49:07.960Z,99975.34
2022-12-16T18:54:28.601Z,99959.91
2022-12-16T18:59:50.885Z,99971.25
2022-12-16T19:05:11.706Z,99988.84
2022-12-16T19:10:32.579Z,99993.13
2022-12-16T19:15:54.890Z,99992.16
2022-12-16T19:21:16.168Z,100002.13
2022-12-16T19:26:36.644Z,100015.00
2022-12-16T19:31:58.911Z,100028.28
2022-12-16T19:37:20.078Z,100015.50
2022-12-16T19:42:52.122Z,100042.09
2022-12-16T19:48:22.903Z,100040.16
2022-12-16T19:53:52.047Z,100054.94
2022-12-16T19:59:12.734Z,100043.47
2022-12-16T20:04:34.826Z,100056.50
2022-12-16T20:09:56.191Z,100051.94
2022-12-16T20:15:16.946Z,100071.72
2022-12-16T20:20:39.427Z,100068.09
2022-12-16T20:25:59.898Z,100066.69
2022-12-16T20:31:21.095Z,100065.38
2022-12-16T20:36:43.257Z,100078.13
2022-12-16T20:42:04.289Z,100082.28
2022-12-16T20:47:36.558Z,100072.56
2022-12-16T20:52:58.938Z,100057.84
2022-12-16T20:58:19.564Z,100055.53
2022-12-16T21:03:40.441Z,100045.38
2022-12-16T21:09:03.166Z,100029.06
2022-12-16T21:14:23.778Z,100032.28
2022-12-16T21:19:44.528Z,100027.78
2022-12-16T21:25:06.632Z,100025.16
2022-12-16T21:30:28.545Z,100029.03
2022-12-16T21:35:51.986Z,100023.84
2022-12-16T21:41:14.264Z,100019.03
2022-12-16T21:46:35.114Z,100001.97
2022-12-16T21:51:56.333Z,100017.00
2022-12-16T21:57:18.491Z,100007.69
2022-12-16T22:02:39.403Z,100009.72
2022-12-16T22:07:59.969Z,100009.28
2022-12-16T22:13:22.386Z,99999.25
2022-12-16T22:18:43.426Z,99999.59
2022-12-16T22:24:04.037Z,99993.47
2022-12-16T22:29:26.319Z,100011.03
2022-12-16T22:34:58.404Z,100005.13
2022-12-16T22:40:19.131Z,100002.16
2022-12-16T22:45:44.529Z,100015.75
2022-12-16T22:51:16.523Z,100019.38
2022-12-16T22:56:37.147Z,100026.50
2022-12-16T23:01:59.316Z,100028.97
2022-12-16T23:07:22.272Z,100036.44
2022-12-16T23:12:43.254Z,100032.81
2022-12-16T23:18:05.273Z,100031.34
2022-12-16T23:23:25.944Z,100029.41
2022-12-16T23:28:46.481Z,100037.03
2022-12-16T23:34:08.875Z,100018.13
2022-12-16T23:39:30.905Z,100017.78
2022-12-16T23:44:56.332Z,100016.41
2022-12-16T23:50:18.693Z,100011.72
2022-12-16T23:55:39.133Z,100004.00
